sensor_id;sensor_type;location;lat;lon;timestamp;temperature;humidity
23550;DHT22;11953;49.010;8.608;2023-05-14T00:00:53;13.20;99.90
23550;DHT22;11953;49.010;8.608;2023-05-14T00:03:39;13.30;99.90
23550;DHT22;11953;49.010;8.608;2023-05-14T00:06:26;13.30;99.90
23550;DHT22;11953;49.010;8.608;2023-05-14T00:09:12;13.30;99.90
23550;DHT22;11953;49.010;8.608;2023-05-14T00:11:59;13.40;99.90
23550;DHT22;11953;49.010;8.608;2023-05-14T00:14:45;13.30;99.90
23550;DHT22;11953;49.010;8.608;2023-05-14T00:17:33;13.30;99.90
23550;DHT22;11953;49.010;8.608;2023-05-14T00:20:20;13.20;99.90
23550;DHT22;11953;49.010;8.608;2023-05-14T00:23:08;13.20;99.90
23550;DHT22;11953;49.010;8.608;2023-05-14T00:25:55;13.30;99.90
23550;DHT22;11953;49.010;8.608;2023-05-14T00:28:41;13.30;99.90
23550;DHT22;11953;49.010;8.608;2023-05-14T00:31:28;13.30;99.90
23550;DHT22;11953;49.010;8.608;2023-05-14T00:34:16;13.10;99.90
23550;DHT22;11953;49.010;8.608;2023-05-14T00:37:03;13.00;99.90
23550;DHT22;11953;49.010;8.608;2023-05-14T00:39:50;12.90;99.90
23550;DHT22;11953;49.010;8.608;2023-05-14T00:42:36;12.50;99.90
23550;DHT22;11953;49.010;8.608;2023-05-14T00:45:23;12.50;99.90
23550;DHT22;11953;49.010;8.608;2023-05-14T00:48:10;12.50;99.90
23550;DHT22;11953;49.010;8.608;2023-05-14T00:50:58;12.40;99.90
23550;DHT22;11953;49.010;8.608;2023-05-14T00:53:45;12.20;99.90
23550;DHT22;11953;49.010;8.608;2023-05-14T00:56:33;12.20;99.90
23550;DHT22;11953;49.010;8.608;2023-05-14T00:59:19;12.20;99.90
23550;DHT22;11953;49.010;8.608;2023-05-14T01:02:06;12.30;99.90
23550;DHT22;11953;49.010;8.608;2023-05-14T01:04:53;12.20;99.90
23550;DHT22;11953;49.010;8.608;2023-05-14T01:07:48;12.30;99.90
23550;DHT22;11953;49.010;8.608;2023-05-14T01:10:51;12.30;99.90
23550;DHT22;11953;49.010;8.608;2023-05-14T01:13:45;12.30;99.90
23550;DHT22;11953;49.010;8.608;2023-05-14T01:16:32;12.10;99.90
23550;DHT22;11953;49.010;8.608;2023-05-14T01:19:25;12.10;99.90
23550;DHT22;11953;49.010;8.608;2023-05-14T01:22:15;12.00;99.90
23550;DHT22;11953;49.010;8.608;2023-05-14T01:25:02;12.10;99.90
23550;DHT22;11953;49.010;8.608;2023-05-14T01:27:53;12.20;99.90
23550;DHT22;11953;49.010;8.608;2023-05-14T01:30:47;12.30;99.90
23550;DHT22;11953;49.010;8.608;2023-05-14T01:33:35;12.20;99.90
23550;DHT22;11953;49.010;8.608;2023-05-14T01:36:22;12.30;99.90
23550;DHT22;11953;49.010;8.608;2023-05-14T01:39:11;12.30;99.90
23550;DHT22;11953;49.010;8.608;2023-05-14T01:42:00;12.30;99.90
23550;DHT22;11953;49.010;8.608;2023-05-14T01:44:47;12.30;99.90
23550;DHT22;11953;49.010;8.608;2023-05-14T01:47:34;12.30;99.90
23550;DHT22;11953;49.010;8.608;2023-05-14T01:50:21;12.30;99.90
23550;DHT22;11953;49.010;8.608;2023-05-14T01:53:08;12.30;99.90
23550;DHT22;11953;49.010;8.608;2023-05-14T01:55:56;12.20;99.90
23550;DHT22;11953;49.010;8.608;2023-05-14T01:58:43;12.00;99.90
23550;DHT22;11953;49.010;8.608;2023-05-14T02:01:30;11.80;99.90
23550;DHT22;11953;49.010;8.608;2023-05-14T02:04:17;11.70;99.90
23550;DHT22;11953;49.010;8.608;2023-05-14T02:07:05;11.60;99.90
23550;DHT22;11953;49.010;8.608;2023-05-14T02:09:51;11.60;99.90
23550;DHT22;11953;49.010;8.608;2023-05-14T02:12:39;11.50;99.90
23550;DHT22;11953;49.010;8.608;2023-05-14T02:15:26;11.50;99.90
23550;DHT22;11953;49.010;8.608;2023-05-14T02:18:13;11.50;99.90
23550;DHT22;11953;49.010;8.608;2023-05-14T02:20:59;11.40;99.90
23550;DHT22;11953;49.010;8.608;2023-05-14T02:23:45;11.20;99.90
23550;DHT22;11953;49.010;8.608;2023-05-14T02:26:33;11.10;99.90
23550;DHT22;11953;49.010;8.608;2023-05-14T02:29:22;10.90;99.90
23550;DHT22;11953;49.010;8.608;2023-05-14T02:32:08;11.00;99.90
23550;DHT22;11953;49.010;8.608;2023-05-14T02:34:55;11.00;99.90
23550;DHT22;11953;49.010;8.608;2023-05-14T02:37:42;11.00;99.90
23550;DHT22;11953;49.010;8.608;2023-05-14T02:40:28;10.90;99.90
23550;DHT22;11953;49.010;8.608;2023-05-14T02:43:14;11.00;99.90
23550;DHT22;11953;49.010;8.608;2023-05-14T02:46:02;11.10;99.90
23550;DHT22;11953;49.010;8.608;2023-05-14T02:48:49;11.20;99.90
23550;DHT22;11953;49.010;8.608;2023-05-14T02:51:35;11.40;99.90
23550;DHT22;11953;49.010;8.608;2023-05-14T02:54:22;11.50;99.90
23550;DHT22;11953;49.010;8.608;2023-05-14T02:57:08;11.50;99.90
23550;DHT22;11953;49.010;8.608;2023-05-14T02:59:55;11.50;99.90
23550;DHT22;11953;49.010;8.608;2023-05-14T03:02:43;11.30;99.90
23550;DHT22;11953;49.010;8.608;2023-05-14T03:05:31;11.20;99.90
23550;DHT22;11953;49.010;8.608;2023-05-14T03:08:17;11.10;99.90
23550;DHT22;11953;49.010;8.608;2023-05-14T03:11:04;11.10;99.90
23550;DHT22;11953;49.010;8.608;2023-05-14T03:13:51;11.10;99.90
23550;DHT22;11953;49.010;8.608;2023-05-14T03:16:38;11.00;99.90
23550;DHT22;11953;49.010;8.608;2023-05-14T03:19:28;11.10;99.90
23550;DHT22;11953;49.010;8.608;2023-05-14T03:22:14;11.10;99.90
23550;DHT22;11953;49.010;8.608;2023-05-14T03:25:01;11.10;99.90
23550;DHT22;11953;49.010;8.608;2023-05-14T03:27:47;11.00;99.90
23550;DHT22;11953;49.010;8.608;2023-05-14T03:30:34;11.00;99.90
23550;DHT22;11953;49.010;8.608;2023-05-14T03:33:21;10.90;99.90
23550;DHT22;11953;49.010;8.608;2023-05-14T03:36:09;10.90;99.90
23550;DHT22;11953;49.010;8.608;2023-05-14T03:38:55;10.90;99.90
23550;DHT22;11953;49.010;8.608;2023-05-14T03:41:42;10.90;99.90
23550;DHT22;11953;49.010;8.608;2023-05-14T03:44:29;10.90;99.90
23550;DHT22;11953;49.010;8.608;2023-05-14T03:47:16;10.90;99.90
23550;DHT22;11953;49.010;8.608;2023-05-14T03:50:04;11.00;99.90
23550;DHT22;11953;49.010;8.608;2023-05-14T03:52:52;11.10;99.90
23550;DHT22;11953;49.010;8.608;2023-05-14T03:55:39;11.00;99.90
23550;DHT22;11953;49.010;8.608;2023-05-14T03:58:28;10.90;99.90
23550;DHT22;11953;49.010;8.608;2023-05-14T04:01:15;10.80;99.90
23550;DHT22;11953;49.010;8.608;2023-05-14T04:04:01;10.70;99.90
23550;DHT22;11953;49.010;8.608;2023-05-14T04:06:48;10.80;99.90
23550;DHT22;11953;49.010;8.608;2023-05-14T04:09:36;10.70;99.90
23550;DHT22;11953;49.010;8.608;2023-05-14T04:12:23;10.60;99.90
23550;DHT22;11953;49.010;8.608;2023-05-14T04:15:11;10.50;99.90
23550;DHT22;11953;49.010;8.608;2023-05-14T04:17:57;10.60;99.90
23550;DHT22;11953;49.010;8.608;2023-05-14T04:20:45;10.60;99.90
23550;DHT22;11953;49.010;8.608;2023-05-14T04:23:31;10.60;99.90
23550;DHT22;11953;49.010;8.608;2023-05-14T04:26:19;10.80;99.90
23550;DHT22;11953;49.010;8.608;2023-05-14T04:29:06;10.80;99.90
23550;DHT22;11953;49.010;8.608;2023-05-14T04:31:52;10.80;99.90
23550;DHT22;11953;49.010;8.608;2023-05-14T04:34:39;10.80;99.90
23550;DHT22;11953;49.010;8.608;2023-05-14T04:37:26;10.90;99.90
23550;DHT22;11953;49.010;8.608;2023-05-14T04:40:13;10.80;99.90
23550;DHT22;11953;49.010;8.608;2023-05-14T04:43:02;10.90;99.90
23550;DHT22;11953;49.010;8.608;2023-05-14T04:45:49;10.80;99.90
23550;DHT22;11953;49.010;8.608;2023-05-14T04:48:36;10.80;99.90
23550;DHT22;11953;49.010;8.608;2023-05-14T04:51:22;10.80;99.90
23550;DHT22;11953;49.010;8.608;2023-05-14T04:54:08;10.80;99.90
23550;DHT22;11953;49.010;8.608;2023-05-14T04:56:55;11.00;99.90
23550;DHT22;11953;49.010;8.608;2023-05-14T04:59:43;11.20;99.90
23550;DHT22;11953;49.010;8.608;2023-05-14T05:02:30;11.20;99.90
23550;DHT22;11953;49.010;8.608;2023-05-14T05:05:17;11.30;99.90
23550;DHT22;11953;49.010;8.608;2023-05-14T05:08:03;11.40;99.90
23550;DHT22;11953;49.010;8.608;2023-05-14T05:10:50;11.50;99.90
23550;DHT22;11953;49.010;8.608;2023-05-14T05:13:37;11.70;99.90
23550;DHT22;11953;49.010;8.608;2023-05-14T05:16:24;11.90;99.90
23550;DHT22;11953;49.010;8.608;2023-05-14T05:19:11;12.00;99.90
23550;DHT22;11953;49.010;8.608;2023-05-14T05:21:58;12.00;99.90
23550;DHT22;11953;49.010;8.608;2023-05-14T05:24:45;12.20;99.90
23550;DHT22;11953;49.010;8.608;2023-05-14T05:27:35;12.60;99.90
23550;DHT22;11953;49.010;8.608;2023-05-14T05:30:22;13.10;99.90
23550;DHT22;11953;49.010;8.608;2023-05-14T05:33:10;13.60;99.90
23550;DHT22;11953;49.010;8.608;2023-05-14T05:35:57;13.70;99.90
23550;DHT22;11953;49.010;8.608;2023-05-14T05:38:43;13.40;99.90
23550;DHT22;11953;49.010;8.608;2023-05-14T05:41:29;13.40;99.90
23550;DHT22;11953;49.010;8.608;2023-05-14T05:44:16;13.60;99.90
23550;DHT22;11953;49.010;8.608;2023-05-14T05:47:03;13.70;99.90
23550;DHT22;11953;49.010;8.608;2023-05-14T05:49:51;13.80;99.90
23550;DHT22;11953;49.010;8.608;2023-05-14T05:52:38;13.80;99.90
23550;DHT22;11953;49.010;8.608;2023-05-14T05:55:25;13.70;99.90
23550;DHT22;11953;49.010;8.608;2023-05-14T05:58:12;13.70;99.90
23550;DHT22;11953;49.010;8.608;2023-05-14T06:01:01;13.50;99.90
23550;DHT22;11953;49.010;8.608;2023-05-14T06:03:48;13.30;99.90
23550;DHT22;11953;49.010;8.608;2023-05-14T06:06:36;13.20;99.90
23550;DHT22;11953;49.010;8.608;2023-05-14T06:09:22;13.30;99.90
23550;DHT22;11953;49.010;8.608;2023-05-14T06:12:09;13.40;99.90
23550;DHT22;11953;49.010;8.608;2023-05-14T06:14:55;13.50;99.90
23550;DHT22;11953;49.010;8.608;2023-05-14T06:17:43;13.60;99.90
23550;DHT22;11953;49.010;8.608;2023-05-14T06:20:30;13.80;99.90
23550;DHT22;11953;49.010;8.608;2023-05-14T06:23:18;13.80;99.90
23550;DHT22;11953;49.010;8.608;2023-05-14T06:26:04;14.00;99.90
23550;DHT22;11953;49.010;8.608;2023-05-14T06:28:51;14.30;99.90
23550;DHT22;11953;49.010;8.608;2023-05-14T06:31:37;14.40;99.90
23550;DHT22;11953;49.010;8.608;2023-05-14T06:34:24;14.50;99.90
23550;DHT22;11953;49.010;8.608;2023-05-14T06:37:12;14.60;99.90
23550;DHT22;11953;49.010;8.608;2023-05-14T06:40:00;14.70;99.90
23550;DHT22;11953;49.010;8.608;2023-05-14T06:42:47;14.90;99.90
23550;DHT22;11953;49.010;8.608;2023-05-14T06:45:34;15.00;99.90
23550;DHT22;11953;49.010;8.608;2023-05-14T06:48:20;15.10;99.90
23550;DHT22;11953;49.010;8.608;2023-05-14T06:51:07;15.30;99.90
23550;DHT22;11953;49.010;8.608;2023-05-14T06:53:55;15.60;99.90
23550;DHT22;11953;49.010;8.608;2023-05-14T06:56:42;15.60;99.90
23550;DHT22;11953;49.010;8.608;2023-05-14T06:59:29;16.00;99.90
23550;DHT22;11953;49.010;8.608;2023-05-14T07:02:15;16.50;99.90
23550;DHT22;11953;49.010;8.608;2023-05-14T07:05:02;16.40;99.90
23550;DHT22;11953;49.010;8.608;2023-05-14T07:07:48;16.50;99.90
23550;DHT22;11953;49.010;8.608;2023-05-14T07:10:35;16.40;99.90
23550;DHT22;11953;49.010;8.608;2023-05-14T07:13:23;16.90;99.90
23550;DHT22;11953;49.010;8.608;2023-05-14T07:16:12;17.70;99.90
23550;DHT22;11953;49.010;8.608;2023-05-14T07:18:59;17.00;99.90
23550;DHT22;11953;49.010;8.608;2023-05-14T07:21:46;16.50;99.90
23550;DHT22;11953;49.010;8.608;2023-05-14T07:24:33;17.40;99.90
23550;DHT22;11953;49.010;8.608;2023-05-14T07:27:19;18.70;99.90
23550;DHT22;11953;49.010;8.608;2023-05-14T07:30:08;19.80;99.90
23550;DHT22;11953;49.010;8.608;2023-05-14T07:32:55;20.60;99.90
23550;DHT22;11953;49.010;8.608;2023-05-14T07:35:41;21.10;99.90
23550;DHT22;11953;49.010;8.608;2023-05-14T07:38:28;21.60;99.90
23550;DHT22;11953;49.010;8.608;2023-05-14T07:41:15;21.90;99.90
23550;DHT22;11953;49.010;8.608;2023-05-14T07:44:02;22.30;99.90
23550;DHT22;11953;49.010;8.608;2023-05-14T07:46:50;21.20;99.90
23550;DHT22;11953;49.010;8.608;2023-05-14T07:49:37;21.40;99.90
23550;DHT22;11953;49.010;8.608;2023-05-14T07:52:23;20.70;99.90
23550;DHT22;11953;49.010;8.608;2023-05-14T07:55:11;20.30;99.90
23550;DHT22;11953;49.010;8.608;2023-05-14T07:57:58;20.50;99.90
23550;DHT22;11953;49.010;8.608;2023-05-14T08:00:45;20.70;99.90
23550;DHT22;11953;49.010;8.608;2023-05-14T08:03:32;21.70;99.90
23550;DHT22;11953;49.010;8.608;2023-05-14T08:06:19;22.70;99.90
23550;DHT22;11953;49.010;8.608;2023-05-14T08:09:07;23.10;99.90
23550;DHT22;11953;49.010;8.608;2023-05-14T08:11:54;22.40;99.90
23550;DHT22;11953;49.010;8.608;2023-05-14T08:14:41;22.10;99.90
23550;DHT22;11953;49.010;8.608;2023-05-14T08:17:28;22.50;99.90
23550;DHT22;11953;49.010;8.608;2023-05-14T08:20:16;22.70;99.90
23550;DHT22;11953;49.010;8.608;2023-05-14T08:23:03;22.30;99.90
23550;DHT22;11953;49.010;8.608;2023-05-14T08:25:49;22.80;99.90
23550;DHT22;11953;49.010;8.608;2023-05-14T08:28:36;23.50;99.90
23550;DHT22;11953;49.010;8.608;2023-05-14T08:31:22;23.80;99.90
23550;DHT22;11953;49.010;8.608;2023-05-14T08:34:09;23.40;99.90
23550;DHT22;11953;49.010;8.608;2023-05-14T08:36:57;23.40;99.90
23550;DHT22;11953;49.010;8.608;2023-05-14T08:39:44;23.80;99.90
23550;DHT22;11953;49.010;8.608;2023-05-14T08:42:31;23.20;99.70
23550;DHT22;11953;49.010;8.608;2023-05-14T08:45:19;22.70;99.60
23550;DHT22;11953;49.010;8.608;2023-05-14T08:48:06;23.20;99.80
23550;DHT22;11953;49.010;8.608;2023-05-14T08:50:55;24.00;99.40
23550;DHT22;11953;49.010;8.608;2023-05-14T08:53:44;24.20;98.10
23550;DHT22;11953;49.010;8.608;2023-05-14T08:56:32;24.60;97.80
23550;DHT22;11953;49.010;8.608;2023-05-14T08:59:19;23.60;97.50
23550;DHT22;11953;49.010;8.608;2023-05-14T09:02:07;23.60;98.40
23550;DHT22;11953;49.010;8.608;2023-05-14T09:04:57;24.40;98.30
23550;DHT22;11953;49.010;8.608;2023-05-14T09:07:44;25.10;97.40
23550;DHT22;11953;49.010;8.608;2023-05-14T09:10:33;25.30;97.50
23550;DHT22;11953;49.010;8.608;2023-05-14T09:13:19;25.40;96.40
23550;DHT22;11953;49.010;8.608;2023-05-14T09:16:06;24.40;96.50
23550;DHT22;11953;49.010;8.608;2023-05-14T09:18:53;23.60;96.50
23550;DHT22;11953;49.010;8.608;2023-05-14T09:21:40;23.70;97.80
23550;DHT22;11953;49.010;8.608;2023-05-14T09:24:27;23.60;96.90
23550;DHT22;11953;49.010;8.608;2023-05-14T09:27:18;23.80;97.00
23550;DHT22;11953;49.010;8.608;2023-05-14T09:30:07;23.60;96.70
23550;DHT22;11953;49.010;8.608;2023-05-14T09:32:55;23.70;97.20
23550;DHT22;11953;49.010;8.608;2023-05-14T09:35:42;23.80;97.20
23550;DHT22;11953;49.010;8.608;2023-05-14T09:38:28;22.90;97.30
23550;DHT22;11953;49.010;8.608;2023-05-14T09:41:15;23.80;97.40
23550;DHT22;11953;49.010;8.608;2023-05-14T09:44:03;23.90;95.40
23550;DHT22;11953;49.010;8.608;2023-05-14T09:46:52;24.50;95.20
23550;DHT22;11953;49.010;8.608;2023-05-14T09:49:39;23.90;95.10
23550;DHT22;11953;49.010;8.608;2023-05-14T09:52:26;23.90;95.40
23550;DHT22;11953;49.010;8.608;2023-05-14T09:55:13;23.40;96.10
23550;DHT22;11953;49.010;8.608;2023-05-14T09:58:00;22.50;95.90
23550;DHT22;11953;49.010;8.608;2023-05-14T10:00:49;22.40;98.40
23550;DHT22;11953;49.010;8.608;2023-05-14T10:03:37;22.30;98.00
23550;DHT22;11953;49.010;8.608;2023-05-14T10:06:25;21.90;97.10
23550;DHT22;11953;49.010;8.608;2023-05-14T10:09:15;21.50;98.40
23550;DHT22;11953;49.010;8.608;2023-05-14T10:12:07;21.30;98.20
23550;DHT22;11953;49.010;8.608;2023-05-14T10:14:54;21.00;98.80
23550;DHT22;11953;49.010;8.608;2023-05-14T10:17:48;20.80;98.30
23550;DHT22;11953;49.010;8.608;2023-05-14T10:20:36;20.90;99.70
23550;DHT22;11953;49.010;8.608;2023-05-14T10:23:23;21.10;98.90
23550;DHT22;11953;49.010;8.608;2023-05-14T10:26:09;20.90;98.00
23550;DHT22;11953;49.010;8.608;2023-05-14T10:28:56;20.90;99.80
23550;DHT22;11953;49.010;8.608;2023-05-14T10:31:51;20.80;98.60
23550;DHT22;11953;49.010;8.608;2023-05-14T10:34:41;20.50;98.50
23550;DHT22;11953;49.010;8.608;2023-05-14T10:37:29;20.40;99.00
23550;DHT22;11953;49.010;8.608;2023-05-14T10:40:16;20.00;99.50
23550;DHT22;11953;49.010;8.608;2023-05-14T10:43:04;19.80;99.80
23550;DHT22;11953;49.010;8.608;2023-05-14T10:45:52;19.80;99.90
23550;DHT22;11953;49.010;8.608;2023-05-14T10:48:41;19.60;99.70
23550;DHT22;11953;49.010;8.608;2023-05-14T10:51:29;19.70;99.90
23550;DHT22;11953;49.010;8.608;2023-05-14T10:54:16;19.70;99.90
23550;DHT22;11953;49.010;8.608;2023-05-14T10:57:07;19.80;99.90
23550;DHT22;11953;49.010;8.608;2023-05-14T10:59:56;20.20;99.90
23550;DHT22;11953;49.010;8.608;2023-05-14T11:02:43;20.10;99.90
23550;DHT22;11953;49.010;8.608;2023-05-14T11:05:31;20.10;99.90
23550;DHT22;11953;49.010;8.608;2023-05-14T11:08:25;20.00;99.90
23550;DHT22;11953;49.010;8.608;2023-05-14T11:11:14;19.90;99.90
23550;DHT22;11953;49.010;8.608;2023-05-14T11:14:03;20.10;99.90
23550;DHT22;11953;49.010;8.608;2023-05-14T11:16:53;20.40;99.90
23550;DHT22;11953;49.010;8.608;2023-05-14T11:19:42;20.50;99.90
23550;DHT22;11953;49.010;8.608;2023-05-14T11:22:29;20.70;99.90
23550;DHT22;11953;49.010;8.608;2023-05-14T11:25:16;21.00;99.90
23550;DHT22;11953;49.010;8.608;2023-05-14T11:28:04;21.20;99.90
23550;DHT22;11953;49.010;8.608;2023-05-14T11:30:51;21.50;99.90
23550;DHT22;11953;49.010;8.608;2023-05-14T11:33:39;21.30;99.90
23550;DHT22;11953;49.010;8.608;2023-05-14T11:36:26;21.30;99.90
23550;DHT22;11953;49.010;8.608;2023-05-14T11:39:17;21.60;99.90
23550;DHT22;11953;49.010;8.608;2023-05-14T11:42:09;21.40;99.90
23550;DHT22;11953;49.010;8.608;2023-05-14T11:44:58;20.90;99.90
23550;DHT22;11953;49.010;8.608;2023-05-14T11:47:45;20.30;99.90
23550;DHT22;11953;49.010;8.608;2023-05-14T11:50:35;20.20;99.90
23550;DHT22;11953;49.010;8.608;2023-05-14T11:53:25;20.20;99.90
23550;DHT22;11953;49.010;8.608;2023-05-14T11:56:12;20.50;99.90
23550;DHT22;11953;49.010;8.608;2023-05-14T11:59:00;20.30;99.90
23550;DHT22;11953;49.010;8.608;2023-05-14T12:01:46;20.40;99.90
23550;DHT22;11953;49.010;8.608;2023-05-14T12:04:35;20.60;99.90
23550;DHT22;11953;49.010;8.608;2023-05-14T12:07:21;20.40;99.90
23550;DHT22;11953;49.010;8.608;2023-05-14T12:10:11;20.50;99.90
23550;DHT22;11953;49.010;8.608;2023-05-14T12:12:58;20.60;99.90
23550;DHT22;11953;49.010;8.608;2023-05-14T12:15:47;20.60;99.90
23550;DHT22;11953;49.010;8.608;2023-05-14T12:18:34;20.70;99.90
23550;DHT22;11953;49.010;8.608;2023-05-14T12:21:21;20.90;99.90
23550;DHT22;11953;49.010;8.608;2023-05-14T12:24:09;21.00;99.90
23550;DHT22;11953;49.010;8.608;2023-05-14T12:27:00;21.10;99.90
23550;DHT22;11953;49.010;8.608;2023-05-14T12:29:47;20.60;99.90
23550;DHT22;11953;49.010;8.608;2023-05-14T12:32:37;20.40;99.90
23550;DHT22;11953;49.010;8.608;2023-05-14T12:35:25;20.40;99.90
23550;DHT22;11953;49.010;8.608;2023-05-14T12:38:12;20.40;99.90
23550;DHT22;11953;49.010;8.608;2023-05-14T12:40:58;20.40;99.90
23550;DHT22;11953;49.010;8.608;2023-05-14T12:43:47;20.40;99.90
23550;DHT22;11953;49.010;8.608;2023-05-14T12:46:33;20.40;99.90
23550;DHT22;11953;49.010;8.608;2023-05-14T12:49:21;20.50;99.90
23550;DHT22;11953;49.010;8.608;2023-05-14T12:52:08;20.50;99.90
23550;DHT22;11953;49.010;8.608;2023-05-14T12:54:58;20.50;99.90
23550;DHT22;11953;49.010;8.608;2023-05-14T12:57:45;20.50;99.90
23550;DHT22;11953;49.010;8.608;2023-05-14T13:00:32;20.10;99.90
23550;DHT22;11953;49.010;8.608;2023-05-14T13:03:18;20.00;99.90
23550;DHT22;11953;49.010;8.608;2023-05-14T13:06:07;20.00;99.90
23550;DHT22;11953;49.010;8.608;2023-05-14T13:08:53;19.90;99.90
23550;DHT22;11953;49.010;8.608;2023-05-14T13:11:41;19.80;99.90
23550;DHT22;11953;49.010;8.608;2023-05-14T13:14:27;19.80;99.90
23550;DHT22;11953;49.010;8.608;2023-05-14T13:17:14;19.90;99.90
23550;DHT22;11953;49.010;8.608;2023-05-14T13:20:01;19.90;99.90
23550;DHT22;11953;49.010;8.608;2023-05-14T13:22:49;19.60;99.90
23550;DHT22;11953;49.010;8.608;2023-05-14T13:25:36;19.40;99.90
23550;DHT22;11953;49.010;8.608;2023-05-14T13:28:22;19.30;99.90
23550;DHT22;11953;49.010;8.608;2023-05-14T13:31:10;19.50;99.90
23550;DHT22;11953;49.010;8.608;2023-05-14T13:33:57;19.30;99.90
23550;DHT22;11953;49.010;8.608;2023-05-14T13:36:43;19.40;99.90
23550;DHT22;11953;49.010;8.608;2023-05-14T13:39:32;19.20;99.90
23550;DHT22;11953;49.010;8.608;2023-05-14T13:42:19;19.40;99.90
23550;DHT22;11953;49.010;8.608;2023-05-14T13:45:07;19.70;99.90
23550;DHT22;11953;49.010;8.608;2023-05-14T13:47:54;20.00;99.90
23550;DHT22;11953;49.010;8.608;2023-05-14T13:50:41;20.00;99.90
23550;DHT22;11953;49.010;8.608;2023-05-14T13:53:28;20.10;99.90
23550;DHT22;11953;49.010;8.608;2023-05-14T13:56:16;20.20;99.90
23550;DHT22;11953;49.010;8.608;2023-05-14T13:59:06;20.50;99.90
23550;DHT22;11953;49.010;8.608;2023-05-14T14:01:53;20.70;99.90
23550;DHT22;11953;49.010;8.608;2023-05-14T14:04:40;20.90;99.90
23550;DHT22;11953;49.010;8.608;2023-05-14T14:07:27;21.00;99.90
23550;DHT22;11953;49.010;8.608;2023-05-14T14:10:14;20.50;99.90
23550;DHT22;11953;49.010;8.608;2023-05-14T14:13:02;20.40;99.90
23550;DHT22;11953;49.010;8.608;2023-05-14T14:15:49;20.20;99.90
23550;DHT22;11953;49.010;8.608;2023-05-14T14:18:35;20.10;99.90
23550;DHT22;11953;49.010;8.608;2023-05-14T14:21:22;20.00;99.90
23550;DHT22;11953;49.010;8.608;2023-05-14T14:24:09;19.40;99.90
23550;DHT22;11953;49.010;8.608;2023-05-14T14:26:56;19.20;99.90
23550;DHT22;11953;49.010;8.608;2023-05-14T14:29:43;19.20;99.90
23550;DHT22;11953;49.010;8.608;2023-05-14T14:32:30;19.30;99.90
23550;DHT22;11953;49.010;8.608;2023-05-14T14:35:18;19.50;99.90
23550;DHT22;11953;49.010;8.608;2023-05-14T14:38:05;19.70;99.90
23550;DHT22;11953;49.010;8.608;2023-05-14T14:40:51;19.50;99.90
23550;DHT22;11953;49.010;8.608;2023-05-14T14:43:39;19.50;99.90
23550;DHT22;11953;49.010;8.608;2023-05-14T14:46:29;19.70;99.90
23550;DHT22;11953;49.010;8.608;2023-05-14T14:49:16;19.80;99.90
23550;DHT22;11953;49.010;8.608;2023-05-14T14:52:02;19.70;99.90
23550;DHT22;11953;49.010;8.608;2023-05-14T14:54:49;19.80;99.90
23550;DHT22;11953;49.010;8.608;2023-05-14T14:57:36;19.80;99.90
23550;DHT22;11953;49.010;8.608;2023-05-14T15:00:23;19.90;99.90
23550;DHT22;11953;49.010;8.608;2023-05-14T15:03:11;20.10;99.90
23550;DHT22;11953;49.010;8.608;2023-05-14T15:05:59;20.10;99.90
23550;DHT22;11953;49.010;8.608;2023-05-14T15:08:46;20.30;99.90
23550;DHT22;11953;49.010;8.608;2023-05-14T15:11:32;20.10;99.90
23550;DHT22;11953;49.010;8.608;2023-05-14T15:14:21;19.90;99.90
23550;DHT22;11953;49.010;8.608;2023-05-14T15:17:08;19.60;99.90
23550;DHT22;11953;49.010;8.608;2023-05-14T15:19:56;19.40;99.90
23550;DHT22;11953;49.010;8.608;2023-05-14T15:22:43;19.40;99.90
23550;DHT22;11953;49.010;8.608;2023-05-14T15:25:30;19.20;99.90
23550;DHT22;11953;49.010;8.608;2023-05-14T15:28:16;19.30;99.90
23550;DHT22;11953;49.010;8.608;2023-05-14T15:31:03;19.10;99.90
23550;DHT22;11953;49.010;8.608;2023-05-14T15:33:51;19.30;99.90
23550;DHT22;11953;49.010;8.608;2023-05-14T15:36:41;19.40;99.90
23550;DHT22;11953;49.010;8.608;2023-05-14T15:39:28;19.60;99.90
23550;DHT22;11953;49.010;8.608;2023-05-14T15:42:15;19.80;99.90
23550;DHT22;11953;49.010;8.608;2023-05-14T15:45:02;19.90;99.90
23550;DHT22;11953;49.010;8.608;2023-05-14T15:47:50;20.00;99.90
23550;DHT22;11953;49.010;8.608;2023-05-14T15:50:36;20.00;99.90
23550;DHT22;11953;49.010;8.608;2023-05-14T15:53:24;19.90;99.90
23550;DHT22;11953;49.010;8.608;2023-05-14T15:56:10;19.80;99.90
23550;DHT22;11953;49.010;8.608;2023-05-14T15:58:57;19.70;99.90
23550;DHT22;11953;49.010;8.608;2023-05-14T16:01:43;19.60;99.90
23550;DHT22;11953;49.010;8.608;2023-05-14T16:04:30;19.60;99.90
23550;DHT22;11953;49.010;8.608;2023-05-14T16:07:17;19.70;99.90
23550;DHT22;11953;49.010;8.608;2023-05-14T16:10:06;19.80;99.90
23550;DHT22;11953;49.010;8.608;2023-05-14T16:12:53;19.80;99.90
23550;DHT22;11953;49.010;8.608;2023-05-14T16:15:39;19.80;99.90
23550;DHT22;11953;49.010;8.608;2023-05-14T16:18:25;19.90;99.90
23550;DHT22;11953;49.010;8.608;2023-05-14T16:21:12;19.90;99.90
23550;DHT22;11953;49.010;8.608;2023-05-14T16:23:59;19.80;99.90
23550;DHT22;11953;49.010;8.608;2023-05-14T16:26:47;19.40;99.90
23550;DHT22;11953;49.010;8.608;2023-05-14T16:29:33;19.40;99.90
23550;DHT22;11953;49.010;8.608;2023-05-14T16:32:20;19.40;99.90
23550;DHT22;11953;49.010;8.608;2023-05-14T16:35:09;19.50;99.90
23550;DHT22;11953;49.010;8.608;2023-05-14T16:37:56;19.50;99.90
23550;DHT22;11953;49.010;8.608;2023-05-14T16:40:42;19.70;99.90
23550;DHT22;11953;49.010;8.608;2023-05-14T16:43:30;19.60;99.90
23550;DHT22;11953;49.010;8.608;2023-05-14T16:46:17;19.40;99.90
23550;DHT22;11953;49.010;8.608;2023-05-14T16:49:03;19.50;99.90
23550;DHT22;11953;49.010;8.608;2023-05-14T16:51:50;19.50;99.90
23550;DHT22;11953;49.010;8.608;2023-05-14T16:54:37;19.60;99.90
23550;DHT22;11953;49.010;8.608;2023-05-14T16:57:24;19.40;99.90
23550;DHT22;11953;49.010;8.608;2023-05-14T17:00:13;19.20;99.90
23550;DHT22;11953;49.010;8.608;2023-05-14T17:03:00;19.20;99.90
23550;DHT22;11953;49.010;8.608;2023-05-14T17:05:47;19.30;99.90
23550;DHT22;11953;49.010;8.608;2023-05-14T17:08:35;19.40;99.90
23550;DHT22;11953;49.010;8.608;2023-05-14T17:11:22;19.60;99.90
23550;DHT22;11953;49.010;8.608;2023-05-14T17:14:09;19.60;99.90
23550;DHT22;11953;49.010;8.608;2023-05-14T17:16:57;19.60;99.90
23550;DHT22;11953;49.010;8.608;2023-05-14T17:19:44;19.70;99.90
23550;DHT22;11953;49.010;8.608;2023-05-14T17:22:31;19.60;99.90
23550;DHT22;11953;49.010;8.608;2023-05-14T17:25:18;19.60;99.90
23550;DHT22;11953;49.010;8.608;2023-05-14T17:28:08;19.60;99.90
23550;DHT22;11953;49.010;8.608;2023-05-14T17:30:54;19.70;99.90
23550;DHT22;11953;49.010;8.608;2023-05-14T17:33:43;19.70;99.90
23550;DHT22;11953;49.010;8.608;2023-05-14T17:36:30;19.70;99.90